createdAt,value
2022-08-05T00:00:46.283Z,82.26
2022-08-05T00:03:15.850Z,82.35
2022-08-05T00:06:05.647Z,82.25
2022-08-05T00:08:34.701Z,82.44
2022-08-05T00:11:04.202Z,82.29
2022-08-05T00:13:38.775Z,82.22
2022-08-05T00:16:08.967Z,82.47
2022-08-05T00:18:37.855Z,82.61
2022-08-05T00:21:05.212Z,82.81
2022-08-05T00:23:46.915Z,82.47
2022-08-05T00:26:20.657Z,82.58
2022-08-05T00:28:47.246Z,82.51
2022-08-05T00:31:15.982Z,82.52
2022-08-05T00:34:54.216Z,82.69
2022-08-05T00:37:11.459Z,83.03
2022-08-05T00:39:15.828Z,82.87
2022-08-05T00:41:55.337Z,83.44
2022-08-05T00:44:30.874Z,83.04
2022-08-05T00:47:01.891Z,83.13
2022-08-05T00:49:32.655Z,83.08
2022-08-05T00:51:59.628Z,83.20
2022-08-05T00:54:28.210Z,83.06
2022-08-05T00:56:57.147Z,83.11
2022-08-05T00:59:23.809Z,83.12
2022-08-05T01:01:50.918Z,82.98
2022-08-05T01:04:20.205Z,83.26
2022-08-05T01:06:53.443Z,83.07
2022-08-05T01:09:21.772Z,83.14
2022-08-05T01:11:52.061Z,83.17
2022-08-05T01:14:35.249Z,83.40
2022-08-05T01:17:05.510Z,83.61
2022-08-05T01:20:01.639Z,83.67
2022-08-05T01:22:57.684Z,83.82
2022-08-05T01:25:53.811Z,83.66
2022-08-05T01:28:37.461Z,83.75
2022-08-05T01:31:18.730Z,83.73
2022-08-05T01:33:54.278Z,84.05
2022-08-05T01:36:28.365Z,84.03
2022-08-05T01:38:56.457Z,83.83
2022-08-05T01:41:29.529Z,84.15
2022-08-05T01:43:57.217Z,84.20
2022-08-05T01:46:41.369Z,83.59
2022-08-05T01:49:23.605Z,83.81
2022-08-05T01:51:55.151Z,83.74
2022-08-05T01:54:27.354Z,84.07
2022-08-05T01:58:12.246Z,84.38
2022-08-05T01:59:47.262Z,84.37
2022-08-05T02:02:16.004Z,84.14
2022-08-05T02:04:46.267Z,84.23
2022-08-05T02:07:21.848Z,83.75
2022-08-05T02:09:50.055Z,83.98
2022-08-05T02:12:32.993Z,84.08
2022-08-05T02:15:03.439Z,83.99
2022-08-05T02:18:30.718Z,84.12
2022-08-05T02:20:26.663Z,83.91
2022-08-05T02:23:00.035Z,84.46
2022-08-05T02:25:33.437Z,84.54
2022-08-05T02:28:16.369Z,84.48
2022-08-05T02:31:01.343Z,84.63
2022-08-05T02:33:38.322Z,84.78
2022-08-05T02:36:09.635Z,84.86
2022-08-05T02:38:43.348Z,85.33
2022-08-05T02:41:17.331Z,84.88
2022-08-05T02:44:06.416Z,85.21
2022-08-05T02:46:35.963Z,85.39
2022-08-05T02:49:21.987Z,85.70
2022-08-05T02:52:02.784Z,85.39
2022-08-05T02:54:35.668Z,85.40
2022-08-05T02:58:10.668Z,85.22
2022-08-05T03:00:13.392Z,85.44
2022-08-05T03:02:40.854Z,85.08
2022-08-05T03:05:11.682Z,84.93
2022-08-05T03:08:00.486Z,84.88
2022-08-05T03:10:27.775Z,85.43
2022-08-05T03:12:54.436Z,85.11
2022-08-05T03:15:23.552Z,85.12
2022-08-05T03:17:54.064Z,85.14
2022-08-05T03:20:23.660Z,85.64
2022-08-05T03:22:51.543Z,86.12
2022-08-05T03:25:32.834Z,85.65
2022-08-05T03:28:08.954Z,85.58
2022-08-05T03:30:38.271Z,85.39
2022-08-05T03:33:08.296Z,85.47
2022-08-05T03:35:40.841Z,85.85
2022-08-05T03:38:12.243Z,85.79
2022-08-05T03:40:45.052Z,85.71
2022-08-05T03:43:58.743Z,86.14
2022-08-05T03:46:02.505Z,85.87
2022-08-05T03:48:30.074Z,85.73
2022-08-05T03:52:48.657Z,85.39
2022-08-05T03:55:53.147Z,85.64
2022-08-05T03:57:20.777Z,86.03
2022-08-05T03:59:54.703Z,86.37
2022-08-05T04:02:37.478Z,86.83
2022-08-05T04:05:09.697Z,87.11
2022-08-05T04:07:53.097Z,87.13
2022-08-05T04:10:33.237Z,86.92
2022-08-05T04:13:05.403Z,87.08
2022-08-05T04:15:33.200Z,87.09
2022-08-05T04:18:07.067Z,87.34
2022-08-05T04:20:34.599Z,87.95
2022-08-05T04:23:01.424Z,88.44
2022-08-05T04:25:56.871Z,88.85
2022-08-05T04:28:14.977Z,88.66
2022-08-05T04:30:41.711Z,88.63
2022-08-05T04:33:09.580Z,89.41
2022-08-05T04:36:10.726Z,89.71
2022-08-05T04:38:22.754Z,89.40
2022-08-05T04:41:06.702Z,89.42
2022-08-05T04:43:34.185Z,88.99
2022-08-05T04:46:01.009Z,89.38
2022-08-05T04:48:28.395Z,89.48
2022-08-05T04:51:03.697Z,89.98
2022-08-05T04:53:38.707Z,90.24
2022-08-05T04:56:33.214Z,90.43
2022-08-05T04:58:56.660Z,90.55
2022-08-05T05:02:05.791Z,90.63
2022-08-05T05:04:09.722Z,90.51
2022-08-05T05:06:44.046Z,91.22
2022-08-05T05:09:13.346Z,91.16
2022-08-05T05:11:48.565Z,91.51
2022-08-05T05:14:19.606Z,91.89
2022-08-05T05:16:58.933Z,91.98
2022-08-05T05:19:27.372Z,92.27
2022-08-05T05:21:55.550Z,92.01
2022-08-05T05:24:22.275Z,92.42
2022-08-05T05:27:08.786Z,93.07
2022-08-05T05:29:41.111Z,93.36
2022-08-05T05:32:21.994Z,93.16
2022-08-05T05:34:48.581Z,93.53
2022-08-05T05:37:19.195Z,94.22
2022-08-05T05:39:45.786Z,94.65
2022-08-05T05:42:12.394Z,94.86
2022-08-05T05:44:43.214Z,94.88
2022-08-05T05:47:21.399Z,95.06
2022-08-05T05:49:56.716Z,94.93
2022-08-05T05:52:31.352Z,95.18
2022-08-05T05:55:07.461Z,95.46
2022-08-05T05:57:42.894Z,95.17
2022-08-05T06:00:20.668Z,95.54
2022-08-05T06:02:54.161Z,94.97
2022-08-05T06:05:21.403Z,94.51
2022-08-05T06:08:01.455Z,94.78
2022-08-05T06:10:29.374Z,95.10
2022-08-05T06:13:02.987Z,94.69
2022-08-05T06:16:30.015Z,95.00
2022-08-05T06:18:16.194Z,94.12
2022-08-05T06:20:47.703Z,94.51
2022-08-05T06:23:14.613Z,94.05
2022-08-05T06:26:12.269Z,93.88
2022-08-05T06:28:28.741Z,93.68
2022-08-05T06:30:55.716Z,93.57
2022-08-05T06:33:52.251Z,93.74
2022-08-05T06:36:10.052Z,93.49
2022-08-05T06:38:37.201Z,93.28
2022-08-05T06:41:05.456Z,93.22
2022-08-05T06:43:59.441Z,92.93
2022-08-05T06:46:21.299Z,92.16
2022-08-05T06:48:56.382Z,91.76
2022-08-05T06:51:30.263Z,90.80
2022-08-05T06:54:02.598Z,90.83
2022-08-05T06:56:30.111Z,89.82
2022-08-05T06:59:00.019Z,89.54
2022-08-05T07:01:27.614Z,90.04
2022-08-05T07:04:01.453Z,89.67
2022-08-05T07:06:29.341Z,89.30
2022-08-05T07:08:56.026Z,89.05
2022-08-05T07:11:25.761Z,88.69
2022-08-05T07:14:15.352Z,87.73
2022-08-05T07:18:02.423Z,88.25
2022-08-05T07:22:28.504Z,85.39
2022-08-05T07:25:23.148Z,83.84
2022-08-05T07:27:58.180Z,82.38
2022-08-05T07:30:39.703Z,82.55
2022-08-05T07:33:10.649Z,81.55
2022-08-05T07:36:01.625Z,81.29
2022-08-05T07:38:33.210Z,80.85
2022-08-05T07:42:06.863Z,81.29
2022-08-05T07:43:52.369Z,81.29
2022-08-05T07:46:24.855Z,80.42
2022-08-05T07:49:02.099Z,80.23
2022-08-05T07:51:41.157Z,79.07
2022-08-05T07:54:19.019Z,78.83
2022-08-05T07:57:13.242Z,79.29
2022-08-05T07:59:39.941Z,77.46
2022-08-05T08:02:16.470Z,76.53
2022-08-05T08:04:48.960Z,75.04
2022-08-05T08:07:22.388Z,74.09
2022-08-05T08:09:52.056Z,71.98
2022-08-05T08:12:37.518Z,71.63
2022-08-05T08:15:09.384Z,70.75
2022-08-05T08:17:40.762Z,70.42
2022-08-05T08:20:43.194Z,69.61
2022-08-05T08:23:03.101Z,68.21
2022-08-05T08:25:36.021Z,66.48
2022-08-05T08:28:18.447Z,66.24
2022-08-05T08:31:02.524Z,67.02
2022-08-05T08:33:37.662Z,66.48
2022-08-05T08:36:40.183Z,66.05
2022-08-05T08:38:53.293Z,66.24
2022-08-05T08:41:21.439Z,65.52
2022-08-05T08:45:18.981Z,65.17
2022-08-05T08:46:43.930Z,65.32
2022-08-05T08:50:05.937Z,64.96
2022-08-05T08:52:13.931Z,63.45
2022-08-05T08:54:43.064Z,64.37
2022-08-05T08:57:13.362Z,63.12
2022-08-05T08:59:41.879Z,62.76
2022-08-05T09:02:14.635Z,62.92
2022-08-05T09:04:58.543Z,62.89
2022-08-05T09:07:40.049Z,63.84
2022-08-05T09:10:19.882Z,64.05
2022-08-05T09:12:51.001Z,63.16
2022-08-05T09:15:20.265Z,61.47
2022-08-05T09:17:49.752Z,60.67
2022-08-05T09:20:21.067Z,60.15
2022-08-05T09:23:07.729Z,60.53
2022-08-05T09:26:00.281Z,59.75
2022-08-05T09:28:24.529Z,58.88
2022-08-05T09:31:23.266Z,56.82
2022-08-05T09:34:01.080Z,57.29
2022-08-05T09:36:55.716Z,55.68
2022-08-05T09:39:41.268Z,57.83
2022-08-05T09:42:23.246Z,57.35
2022-08-05T09:44:56.512Z,54.66
2022-08-05T09:47:26.181Z,55.36
2022-08-05T09:50:01.728Z,54.12
2022-08-05T09:52:36.391Z,54.67
2022-08-05T09:55:57.169Z,54.48
2022-08-05T09:58:00.029Z,53.61
2022-08-05T10:00:27.670Z,53.40
2022-08-05T10:02:58.083Z,54.31
2022-08-05T10:05:32.696Z,53.79
2022-08-05T10:08:34.631Z,53.78
2022-08-05T10:10:53.943Z,52.88
2022-08-05T10:13:43.985Z,52.11
2022-08-05T10:16:41.553Z,50.21
2022-08-05T10:19:10.054Z,49.88
2022-08-05T10:21:40.826Z,51.82
2022-08-05T10:24:13.698Z,52.60
2022-08-05T10:26:49.177Z,52.24
2022-08-05T10:29:23.646Z,50.39
2022-08-05T10:32:52.878Z,51.47
2022-08-05T10:34:57.604Z,50.60
2022-08-05T10:37:37.141Z,51.20
2022-08-05T10:40:17.786Z,50.37
2022-08-05T10:42:50.747Z,50.06
2022-08-05T10:45:30.624Z,50.74
2022-08-05T10:48:39.639Z,48.93
2022-08-05T10:51:28.428Z,51.14
2022-08-05T10:54:01.559Z,50.23
2022-08-05T10:56:45.364Z,48.51
2022-08-05T11:00:02.606Z,49.92
2022-08-05T11:02:34.572Z,50.16
2022-08-05T11:05:05.419Z,49.60
2022-08-05T11:07:32.945Z,50.50
2022-08-05T11:10:27.562Z,49.00
2022-08-05T11:12:57.436Z,49.11
2022-08-05T11:15:59.147Z,49.10
2022-08-05T11:18:34.160Z,49.14
2022-08-05T11:21:02.898Z,47.21
2022-08-05T11:24:05.191Z,45.47
2022-08-05T11:26:40.480Z,45.27
2022-08-05T11:29:42.707Z,46.49
2022-08-05T11:32:27.505Z,46.62
2022-08-05T11:34:55.319Z,47.13
2022-08-05T11:38:26.148Z,45.80
2022-08-05T11:41:34.206Z,45.90
2022-08-05T11:44:06.062Z,46.84
2022-08-05T11:46:36.073Z,46.17
2022-08-05T11:49:06.234Z,44.88
2022-08-05T11:51:44.256Z,44.87
2022-08-05T11:54:38.348Z,45.13
2022-08-05T11:57:25.516Z,45.91
2022-08-05T11:59:52.861Z,46.12
2022-08-05T12:02:29.781Z,45.57
2022-08-05T12:05:00.538Z,45.58
2022-08-05T12:08:03.110Z,45.50
2022-08-05T12:10:22.763Z,46.47
2022-08-05T12:12:59.942Z,45.68
2022-08-05T12:15:35.792Z,46.31
2022-08-05T12:18:11.051Z,45.23
2022-08-05T12:20:39.419Z,44.89
2022-08-05T12:23:11.314Z,45.41
2022-08-05T12:25:58.332Z,45.64
2022-08-05T12:28:36.805Z,45.56
2022-08-05T12:31:04.020Z,44.67
2022-08-05T12:33:37.048Z,44.70
2022-08-05T12:36:09.641Z,43.29
2022-08-05T12:38:41.200Z,44.18
2022-08-05T12:41:16.421Z,43.76
2022-08-05T12:43:50.233Z,43.33
2022-08-05T12:46:28.840Z,44.23
2022-08-05T12:49:13.656Z,43.92
2022-08-05T12:52:14.355Z,44.26
2022-08-05T12:54:37.274Z,45.04
2022-08-05T12:57:09.651Z,44.19
2022-08-05T13:01:58.267Z,44.91
2022-08-05T13:02:42.581Z,44.97
2022-08-05T13:05:14.778Z,45.21
2022-08-05T13:07:59.472Z,44.23
2022-08-05T13:10:27.063Z,43.48
2022-08-05T13:12:57.971Z,43.60
2022-08-05T13:15:42.203Z,45.21
2022-08-05T13:18:20.040Z,45.04
2022-08-05T13:20:47.648Z,44.95
2022-08-05T13:23:22.125Z,46.22
2022-08-05T13:25:52.206Z,45.65
2022-08-05T13:28:27.128Z,45.45
2022-08-05T13:30:53.801Z,45.46
2022-08-05T13:34:21.912Z,46.11
2022-08-05T13:36:09.279Z,44.51
2022-08-05T13:38:41.923Z,44.26
2022-08-05T13:41:09.725Z,43.88
2022-08-05T13:43:43.378Z,43.45
2022-08-05T13:46:11.698Z,43.15
2022-08-05T13:48:58.613Z,42.30
2022-08-05T13:51:29.356Z,42.61
2022-08-05T13:54:03.509Z,41.56
2022-08-05T13:56:51.214Z,42.62
2022-08-05T13:59:24.957Z,42.52
2022-08-05T14:01:59.096Z,43.32
2022-08-05T14:04:56.188Z,42.37
2022-08-05T14:07:59.617Z,44.36
2022-08-05T14:10:28.661Z,43.23
2022-08-05T14:12:57.185Z,42.52
2022-08-05T14:16:07.499Z,42.73
2022-08-05T14:18:15.231Z,41.25
2022-08-05T14:20:47.153Z,42.84
2022-08-05T14:23:24.638Z,41.95
2022-08-05T14:25:53.968Z,41.79
2022-08-05T14:28:26.940Z,42.50
2022-08-05T14:30:54.570Z,41.95
2022-08-05T14:33:22.580Z,41.57
2022-08-05T14:35:52.105Z,41.79
2022-08-05T14:38:31.905Z,41.63
2022-08-05T14:41:01.645Z,41.57
2022-08-05T14:44:01.881Z,40.48
2022-08-05T14:46:18.956Z,42.48
2022-08-05T14:48:49.150Z,40.96
2022-08-05T14:51:17.539Z,41.81
2022-08-05T14:53:44.975Z,41.10
2022-08-05T14:56:12.113Z,42.60
2022-08-05T14:58:47.512Z,42.69
2022-08-05T15:01:47.171Z,40.93
2022-08-05T15:04:11.455Z,42.03
2022-08-05T15:06:38.920Z,42.65
2022-08-05T15:09:07.468Z,42.50
2022-08-05T15:11:52.387Z,42.76
2022-08-05T15:14:42.221Z,42.16
2022-08-05T15:17:44.597Z,41.56
2022-08-05T15:20:04.126Z,42.39
2022-08-05T15:22:30.663Z,41.50
2022-08-05T15:24:59.170Z,42.45
2022-08-05T15:27:26.518Z,42.35
2022-08-05T15:29:59.231Z,42.20
2022-08-05T15:32:27.219Z,41.25
2022-08-05T15:34:55.504Z,41.59
2022-08-05T15:38:33.680Z,41.95
2022-08-05T15:40:59.836Z,42.26
2022-08-05T15:43:09.375Z,42.17
2022-08-05T15:45:45.746Z,43.64
2022-08-05T15:48:14.241Z,43.84
2022-08-05T15:50:40.990Z,43.46
2022-08-05T15:53:12.536Z,43.14
2022-08-05T15:56:02.986Z,43.76
2022-08-05T15:58:26.699Z,44.54
2022-08-05T16:01:04.347Z,44.30
2022-08-05T16:03:40.982Z,45.59
2022-08-05T16:06:09.262Z,44.86
2022-08-05T16:08:38.166Z,43.89
2022-08-05T16:11:05.076Z,43.63
2022-08-05T16:13:34.140Z,44.20
2022-08-05T16:16:02.038Z,44.09
2022-08-05T16:18:30.226Z,45.57
2022-08-05T16:20:57.555Z,45.04
2022-08-05T16:23:24.285Z,44.44
2022-08-05T16:25:55.787Z,45.14
2022-08-05T16:28:24.251Z,44.21
2022-08-05T16:30:52.139Z,44.09
2022-08-05T16:33:19.340Z,44.77
2022-08-05T16:35:49.898Z,44.23
2022-08-05T16:38:25.365Z,45.09
2022-08-05T16:41:00.852Z,45.52
2022-08-05T16:43:33.575Z,45.56
2022-08-05T16:46:13.096Z,45.50
2022-08-05T16:48:50.418Z,46.65
2022-08-05T16:51:17.547Z,45.30
2022-08-05T16:54:05.241Z,45.62
2022-08-05T16:56:33.823Z,45.61
2022-08-05T16:59:08.312Z,46.12
2022-08-05T17:01:53.957Z,47.97
2022-08-05T17:04:23.731Z,47.20
2022-08-05T17:06:53.717Z,47.84
2022-08-05T17:09:20.583Z,49.25
2022-08-05T17:11:48.792Z,51.23
2022-08-05T17:14:34.172Z,51.98
2022-08-05T17:17:04.017Z,52.63
2022-08-05T17:19:31.391Z,52.55
2022-08-05T17:21:58.535Z,53.10
2022-08-05T17:24:35.172Z,53.69
2022-08-05T17:27:08.993Z,54.69
2022-08-05T17:29:40.785Z,54.89
2022-08-05T17:32:17.396Z,56.12
2022-08-05T17:34:47.707Z,56.60
2022-08-05T17:37:41.051Z,56.68
2022-08-05T17:40:10.242Z,57.10
2022-08-05T17:42:39.951Z,58.04
2022-08-05T17:45:20.363Z,58.42
2022-08-05T17:47:52.900Z,58.95
2022-08-05T17:50:28.749Z,59.41
2022-08-05T17:53:01.619Z,59.98
2022-08-05T17:55:37.416Z,60.24
2022-08-05T17:58:12.487Z,60.42
2022-08-05T18:00:44.383Z,60.84
2022-08-05T18:03:28.009Z,61.34
2022-08-05T18:06:04.563Z,61.37
2022-08-05T18:08:33.512Z,61.31
2022-08-05T18:11:01.042Z,61.91
2022-08-05T18:13:36.758Z,62.40
2022-08-05T18:16:13.321Z,62.72
2022-08-05T18:18:41.630Z,62.94
2022-08-05T18:21:19.651Z,63.35
2022-08-05T18:23:48.055Z,63.66
2022-08-05T18:26:14.815Z,63.86
2022-08-05T18:28:46.583Z,63.79
2022-08-05T18:31:15.930Z,64.38
2022-08-05T18:33:47.085Z,64.58
2022-08-05T18:36:15.452Z,64.67
2022-08-05T18:38:42.756Z,64.86
2022-08-05T18:41:55.541Z,65.57
2022-08-05T18:43:56.071Z,65.92
2022-08-05T18:46:22.786Z,66.09
2022-08-05T18:48:53.585Z,66.72
2022-08-05T18:52:06.402Z,66.67
2022-08-05T18:54:31.260Z,66.91
2022-08-05T18:57:00.963Z,67.07
2022-08-05T18:59:43.323Z,67.25
2022-08-05T19:02:26.640Z,67.96
2022-08-05T19:06:05.320Z,68.21
2022-08-05T19:07:53.090Z,68.64
2022-08-05T19:10:26.550Z,68.90
2022-08-05T19:12:54.944Z,69.23
2022-08-05T19:15:57.512Z,69.41
2022-08-05T19:18:13.655Z,69.61
2022-08-05T19:20:51.583Z,69.91
2022-08-05T19:24:03.523Z,69.93
2022-08-05T19:26:05.524Z,70.55
2022-08-05T19:28:41.530Z,70.79
2022-08-05T19:31:09.034Z,71.46
2022-08-05T19:33:40.722Z,71.90
2022-08-05T19:36:16.950Z,72.09
2022-08-05T19:38:45.170Z,72.21
2022-08-05T19:41:11.738Z,72.74
2022-08-05T19:44:05.402Z,73.22
2022-08-05T19:46:30.160Z,73.62
2022-08-05T19:49:03.199Z,73.62
2022-08-05T19:52:05.040Z,73.73
2022-08-05T19:54:27.226Z,74.21
2022-08-05T19:57:06.488Z,74.18
2022-08-05T19:59:55.577Z,74.32
2022-08-05T20:02:22.867Z,74.58
2022-08-05T20:04:49.935Z,74.87
2022-08-05T20:07:47.437Z,74.79
2022-08-05T20:10:13.483Z,74.75
2022-08-05T20:12:48.206Z,75.10
2022-08-05T20:15:47.885Z,75.51
2022-08-05T20:18:10.384Z,75.96
2022-08-05T20:20:56.004Z,75.72
2022-08-05T20:23:39.270Z,76.27
2022-08-05T20:26:16.213Z,76.01
2022-08-05T20:28:44.241Z,76.28
2022-08-05T20:31:11.262Z,76.81
2022-08-05T20:33:37.849Z,77.08
2022-08-05T20:36:09.019Z,77.06
2022-08-05T20:38:37.663Z,77.39
2022-08-05T20:41:08.449Z,77.23
2022-08-05T20:43:59.683Z,77.54
2022-08-05T20:46:25.177Z,78.00
2022-08-05T20:48:52.262Z,78.13
2022-08-05T20:51:18.914Z,78.32
2022-08-05T20:53:55.234Z,78.50
2022-08-05T20:56:28.168Z,78.92
2022-08-05T20:58:56.663Z,78.93
2022-08-05T21:01:38.172Z,79.03
2022-08-05T21:04:07.322Z,78.78
2022-08-05T21:06:38.397Z,78.95
2022-08-05T21:09:14.271Z,79.59
2022-08-05T21:12:09.902Z,79.95
2022-08-05T21:14:28.661Z,79.23
2022-08-05T21:17:01.249Z,79.57
2022-08-05T21:19:29.654Z,79.68
2022-08-05T21:22:14.540Z,79.79
2022-08-05T21:24:41.058Z,80.16
2022-08-05T21:27:09.288Z,80.31
2022-08-05T21:29:40.690Z,80.40
2022-08-05T21:32:07.771Z,80.29
2022-08-05T21:34:35.478Z,80.58
2022-08-05T21:37:02.494Z,80.89
2022-08-05T21:39:29.497Z,81.25
2022-08-05T21:42:01.018Z,81.18
2022-08-05T21:44:28.515Z,81.46
2022-08-05T21:46:55.748Z,81.81
2022-08-05T21:49:56.570Z,81.93
2022-08-05T21:52:27.828Z,82.09
2022-08-05T21:54:56.090Z,81.91
2022-08-05T21:57:31.559Z,82.11
2022-08-05T22:00:06.346Z,82.10
2022-08-05T22:02:33.798Z,82.08
2022-08-05T22:05:00.408Z,82.01
2022-08-05T22:07:39.717Z,82.02
2022-08-05T22:10:16.605Z,82.27
2022-08-05T22:12:44.770Z,82.59
2022-08-05T22:16:00.342Z,82.70
2022-08-05T22:18:04.229Z,82.73
2022-08-05T22:20:30.843Z,82.91
2022-08-05T22:23:21.494Z,82.75
2022-08-05T22:26:10.102Z,82.93
2022-08-05T22:28:38.780Z,82.72
2022-08-05T22:31:06.277Z,83.04
2022-08-05T22:33:55.543Z,83.11
2022-08-05T22:36:19.735Z,83.61
2022-08-05T22:38:50.769Z,83.81
2022-08-05T22:42:04.847Z,83.97
2022-08-05T22:44:07.180Z,83.67
2022-08-05T22:46:33.998Z,83.44
2022-08-05T22:49:12.143Z,83.79
2022-08-05T22:52:06.136Z,83.99
2022-08-05T22:54:36.746Z,83.64
2022-08-05T22:57:06.886Z,83.57
2022-08-05T22:59:45.161Z,83.61
2022-08-05T23:02:13.712Z,83.54
2022-08-05T23:04:51.243Z,83.50
2022-08-05T23:07:18.994Z,83.68
2022-08-05T23:09:58.310Z,83.63
2022-08-05T23:12:32.732Z,83.62
2022-08-05T23:15:03.938Z,83.96
2022-08-05T23:17:37.884Z,84.17
2022-08-05T23:20:23.549Z,84.03
2022-08-05T23:22:52.785Z,84.43
2022-08-05T23:25:54.773Z,84.68
2022-08-05T23:28:10.822Z,84.39
2022-08-05T23:30:40.428Z,84.18
2022-08-05T23:33:21.961Z,84.13
2022-08-05T23:35:55.907Z,84.17
2022-08-05T23:38:24.219Z,84.42
2022-08-05T23:40:52.688Z,84.43
2022-08-05T23:43:24.811Z,84.62
2022-08-05T23:46:03.361Z,84.26
2022-08-05T23:48:29.968Z,84.54
2022-08-05T23:50:56.526Z,84.73
2022-08-05T23:53:40.662Z,84.84
2022-08-05T23:56:11.975Z,85.27
2022-08-05T23:58:38.828Z,85.63
